sensor_id;sensor_type;location;lat;lon;timestamp;P1;durP1;ratioP1;P2;durP2;ratioP2
65156;SDS011;52745;49.794;18.258;2022-12-18T00:01:27;52.13;;;15.75;;
65156;SDS011;52745;49.794;18.258;2022-12-18T00:03:59;47.08;;;14.60;;
65156;SDS011;52745;49.794;18.258;2022-12-18T00:06:28;47.75;;;15.27;;
65156;SDS011;52745;49.794;18.258;2022-12-18T00:08:56;47.92;;;15.43;;
65156;SDS011;52745;49.794;18.258;2022-12-18T00:11:25;44.38;;;13.00;;
65156;SDS011;52745;49.794;18.258;2022-12-18T00:13:53;51.67;;;14.07;;
65156;SDS011;52745;49.794;18.258;2022-12-18T00:16:21;51.47;;;15.30;;
65156;SDS011;52745;49.794;18.258;2022-12-18T00:18:51;41.45;;;14.32;;
65156;SDS011;52745;49.794;18.258;2022-12-18T00:21:20;50.38;;;15.30;;
65156;SDS011;52745;49.794;18.258;2022-12-18T00:23:47;43.25;;;13.65;;
65156;SDS011;52745;49.794;18.258;2022-12-18T00:26:16;51.35;;;14.75;;
65156;SDS011;52745;49.794;18.258;2022-12-18T00:28:44;42.22;;;15.35;;
65156;SDS011;52745;49.794;18.258;2022-12-18T00:31:12;41.67;;;14.55;;
65156;SDS011;52745;49.794;18.258;2022-12-18T00:33:41;45.72;;;14.52;;
65156;SDS011;52745;49.794;18.258;2022-12-18T00:36:14;45.90;;;15.27;;
65156;SDS011;52745;49.794;18.258;2022-12-18T00:38:41;44.47;;;14.55;;
65156;SDS011;52745;49.794;18.258;2022-12-18T00:41:09;42.95;;;13.85;;
65156;SDS011;52745;49.794;18.258;2022-12-18T00:43:38;37.30;;;11.95;;
65156;SDS011;52745;49.794;18.258;2022-12-18T00:46:05;39.63;;;13.43;;
65156;SDS011;52745;49.794;18.258;2022-12-18T00:48:32;45.33;;;13.05;;
65156;SDS011;52745;49.794;18.258;2022-12-18T00:50:59;43.13;;;13.50;;
65156;SDS011;52745;49.794;18.258;2022-12-18T00:53:25;41.33;;;13.38;;
65156;SDS011;52745;49.794;18.258;2022-12-18T00:55:52;38.42;;;13.18;;
65156;SDS011;52745;49.794;18.258;2022-12-18T00:58:18;37.03;;;12.40;;
65156;SDS011;52745;49.794;18.258;2022-12-18T01:00:45;44.65;;;13.10;;
65156;SDS011;52745;49.794;18.258;2022-12-18T01:03:14;42.00;;;13.15;;
65156;SDS011;52745;49.794;18.258;2022-12-18T01:05:43;42.08;;;13.50;;
65156;SDS011;52745;49.794;18.258;2022-12-18T01:08:11;40.63;;;13.43;;
65156;SDS011;52745;49.794;18.258;2022-12-18T01:10:40;45.47;;;14.85;;
65156;SDS011;52745;49.794;18.258;2022-12-18T01:13:07;42.42;;;14.55;;
65156;SDS011;52745;49.794;18.258;2022-12-18T01:15:34;44.78;;;13.57;;
65156;SDS011;52745;49.794;18.258;2022-12-18T01:18:00;46.58;;;14.77;;
65156;SDS011;52745;49.794;18.258;2022-12-18T01:20:27;45.35;;;14.05;;
65156;SDS011;52745;49.794;18.258;2022-12-18T01:22:53;41.80;;;14.52;;
65156;SDS011;52745;49.794;18.258;2022-12-18T01:25:20;51.63;;;16.23;;
65156;SDS011;52745;49.794;18.258;2022-12-18T01:27:46;44.40;;;13.80;;
65156;SDS011;52745;49.794;18.258;2022-12-18T01:30:13;45.90;;;14.70;;
65156;SDS011;52745;49.794;18.258;2022-12-18T01:32:39;50.42;;;14.43;;
65156;SDS011;52745;49.794;18.258;2022-12-18T01:35:06;42.38;;;13.13;;
65156;SDS011;52745;49.794;18.258;2022-12-18T01:37:33;41.75;;;13.10;;
65156;SDS011;52745;49.794;18.258;2022-12-18T01:40:00;38.97;;;12.32;;
65156;SDS011;52745;49.794;18.258;2022-12-18T01:42:26;36.95;;;11.82;;
65156;SDS011;52745;49.794;18.258;2022-12-18T01:44:57;37.90;;;12.25;;
65156;SDS011;52745;49.794;18.258;2022-12-18T01:50:15;36.45;;;11.63;;
65156;SDS011;52745;49.794;18.258;2022-12-18T01:52:43;38.38;;;12.35;;
65156;SDS011;52745;49.794;18.258;2022-12-18T01:55:13;49.08;;;13.77;;
65156;SDS011;52745;49.794;18.258;2022-12-18T01:57:42;41.92;;;12.68;;
65156;SDS011;52745;49.794;18.258;2022-12-18T02:00:18;38.28;;;12.88;;
65156;SDS011;52745;49.794;18.258;2022-12-18T02:02:47;36.20;;;13.05;;
65156;SDS011;52745;49.794;18.258;2022-12-18T02:05:16;40.03;;;12.77;;
65156;SDS011;52745;49.794;18.258;2022-12-18T02:10:41;36.85;;;12.05;;
65156;SDS011;52745;49.794;18.258;2022-12-18T02:13:20;41.90;;;13.45;;
65156;SDS011;52745;49.794;18.258;2022-12-18T02:18:41;39.85;;;12.50;;
65156;SDS011;52745;49.794;18.258;2022-12-18T02:21:36;40.80;;;12.38;;
65156;SDS011;52745;49.794;18.258;2022-12-18T02:27:19;40.13;;;11.48;;
65156;SDS011;52745;49.794;18.258;2022-12-18T02:32:27;33.67;;;11.77;;
65156;SDS011;52745;49.794;18.258;2022-12-18T02:35:07;35.03;;;11.40;;
65156;SDS011;52745;49.794;18.258;2022-12-18T02:37:39;37.25;;;11.77;;
65156;SDS011;52745;49.794;18.258;2022-12-18T02:40:08;43.53;;;13.50;;
65156;SDS011;52745;49.794;18.258;2022-12-18T02:42:37;36.92;;;12.02;;
65156;SDS011;52745;49.794;18.258;2022-12-18T02:45:06;37.15;;;11.80;;
65156;SDS011;52745;49.794;18.258;2022-12-18T02:47:36;36.13;;;12.40;;
65156;SDS011;52745;49.794;18.258;2022-12-18T02:53:19;37.67;;;11.93;;
65156;SDS011;52745;49.794;18.258;2022-12-18T02:56:09;33.70;;;11.20;;
65156;SDS011;52745;49.794;18.258;2022-12-18T03:01:56;35.35;;;10.82;;
65156;SDS011;52745;49.794;18.258;2022-12-18T03:04:43;34.35;;;11.68;;
65156;SDS011;52745;49.794;18.258;2022-12-18T03:07:23;26.20;;;9.98;;
65156;SDS011;52745;49.794;18.258;2022-12-18T03:09:57;34.05;;;11.32;;
65156;SDS011;52745;49.794;18.258;2022-12-18T03:12:30;27.85;;;10.70;;
65156;SDS011;52745;49.794;18.258;2022-12-18T03:15:09;36.08;;;12.15;;
65156;SDS011;52745;49.794;18.258;2022-12-18T03:17:45;31.90;;;10.55;;
65156;SDS011;52745;49.794;18.258;2022-12-18T03:20:17;33.67;;;11.83;;
65156;SDS011;52745;49.794;18.258;2022-12-18T03:22:50;32.60;;;11.45;;
65156;SDS011;52745;49.794;18.258;2022-12-18T03:25:20;33.30;;;12.27;;
65156;SDS011;52745;49.794;18.258;2022-12-18T03:27:53;39.28;;;14.77;;
65156;SDS011;52745;49.794;18.258;2022-12-18T03:30:24;46.17;;;15.93;;
65156;SDS011;52745;49.794;18.258;2022-12-18T03:35:46;64.65;;;20.38;;
65156;SDS011;52745;49.794;18.258;2022-12-18T03:38:13;42.28;;;13.73;;
65156;SDS011;52745;49.794;18.258;2022-12-18T03:52:33;32.55;;;10.25;;
65156;SDS011;52745;49.794;18.258;2022-12-18T03:55:05;31.90;;;10.52;;
65156;SDS011;52745;49.794;18.258;2022-12-18T03:57:35;33.17;;;10.73;;
65156;SDS011;52745;49.794;18.258;2022-12-18T04:00:09;41.50;;;12.63;;
65156;SDS011;52745;49.794;18.258;2022-12-18T04:02:43;41.53;;;12.27;;
65156;SDS011;52745;49.794;18.258;2022-12-18T04:05:20;27.67;;;9.95;;
65156;SDS011;52745;49.794;18.258;2022-12-18T04:07:49;40.50;;;12.02;;
65156;SDS011;52745;49.794;18.258;2022-12-18T04:10:17;31.30;;;11.20;;
65156;SDS011;52745;49.794;18.258;2022-12-18T04:12:45;34.00;;;11.63;;
65156;SDS011;52745;49.794;18.258;2022-12-18T04:15:13;36.47;;;11.63;;
65156;SDS011;52745;49.794;18.258;2022-12-18T04:17:43;40.28;;;12.70;;
65156;SDS011;52745;49.794;18.258;2022-12-18T04:20:14;33.38;;;11.13;;
65156;SDS011;52745;49.794;18.258;2022-12-18T04:22:43;40.47;;;11.27;;
65156;SDS011;52745;49.794;18.258;2022-12-18T04:25:10;30.08;;;10.60;;
65156;SDS011;52745;49.794;18.258;2022-12-18T04:27:43;39.60;;;11.80;;
65156;SDS011;52745;49.794;18.258;2022-12-18T04:30:10;38.90;;;11.32;;
65156;SDS011;52745;49.794;18.258;2022-12-18T04:32:38;33.38;;;11.10;;
65156;SDS011;52745;49.794;18.258;2022-12-18T04:35:04;34.10;;;11.43;;
65156;SDS011;52745;49.794;18.258;2022-12-18T04:37:33;35.03;;;11.77;;
65156;SDS011;52745;49.794;18.258;2022-12-18T04:39:59;34.70;;;11.52;;
65156;SDS011;52745;49.794;18.258;2022-12-18T04:42:36;40.92;;;11.50;;
65156;SDS011;52745;49.794;18.258;2022-12-18T04:45:02;90.20;;;28.73;;
65156;SDS011;52745;49.794;18.258;2022-12-18T04:47:29;33.90;;;14.40;;
65156;SDS011;52745;49.794;18.258;2022-12-18T04:49:56;49.50;;;16.55;;
65156;SDS011;52745;49.794;18.258;2022-12-18T04:52:23;37.05;;;12.85;;
65156;SDS011;52745;49.794;18.258;2022-12-18T04:54:49;32.53;;;12.13;;
65156;SDS011;52745;49.794;18.258;2022-12-18T04:57:16;42.97;;;12.07;;
65156;SDS011;52745;49.794;18.258;2022-12-18T04:59:44;29.05;;;11.57;;
65156;SDS011;52745;49.794;18.258;2022-12-18T05:02:11;36.28;;;12.70;;
65156;SDS011;52745;49.794;18.258;2022-12-18T05:04:37;36.95;;;12.77;;
65156;SDS011;52745;49.794;18.258;2022-12-18T05:07:04;33.40;;;11.27;;
65156;SDS011;52745;49.794;18.258;2022-12-18T05:09:30;30.63;;;12.70;;
65156;SDS011;52745;49.794;18.258;2022-12-18T05:11:56;37.78;;;11.60;;
65156;SDS011;52745;49.794;18.258;2022-12-18T05:14:23;38.42;;;12.18;;
65156;SDS011;52745;49.794;18.258;2022-12-18T05:16:50;30.88;;;11.40;;
65156;SDS011;52745;49.794;18.258;2022-12-18T05:19:16;39.45;;;12.18;;
65156;SDS011;52745;49.794;18.258;2022-12-18T05:21:43;33.28;;;11.38;;
65156;SDS011;52745;49.794;18.258;2022-12-18T05:24:09;39.17;;;13.07;;
65156;SDS011;52745;49.794;18.258;2022-12-18T05:26:36;34.80;;;11.00;;
65156;SDS011;52745;49.794;18.258;2022-12-18T05:29:02;29.77;;;10.80;;
65156;SDS011;52745;49.794;18.258;2022-12-18T05:31:29;34.28;;;11.63;;
65156;SDS011;52745;49.794;18.258;2022-12-18T05:33:55;44.97;;;15.23;;
65156;SDS011;52745;49.794;18.258;2022-12-18T05:36:24;36.42;;;13.88;;
65156;SDS011;52745;49.794;18.258;2022-12-18T05:38:51;35.25;;;12.70;;
65156;SDS011;52745;49.794;18.258;2022-12-18T05:41:17;31.65;;;13.43;;
65156;SDS011;52745;49.794;18.258;2022-12-18T05:43:44;31.10;;;13.65;;
65156;SDS011;52745;49.794;18.258;2022-12-18T05:46:12;37.90;;;13.15;;
65156;SDS011;52745;49.794;18.258;2022-12-18T05:48:41;32.53;;;12.15;;
65156;SDS011;52745;49.794;18.258;2022-12-18T05:51:09;32.55;;;11.40;;
65156;SDS011;52745;49.794;18.258;2022-12-18T05:53:41;65.47;;;23.27;;
65156;SDS011;52745;49.794;18.258;2022-12-18T05:56:11;39.58;;;12.55;;
65156;SDS011;52745;49.794;18.258;2022-12-18T05:58:39;32.15;;;11.50;;
65156;SDS011;52745;49.794;18.258;2022-12-18T06:01:13;40.20;;;12.18;;
65156;SDS011;52745;49.794;18.258;2022-12-18T06:03:43;35.58;;;11.55;;
65156;SDS011;52745;49.794;18.258;2022-12-18T06:06:14;34.88;;;12.60;;
65156;SDS011;52745;49.794;18.258;2022-12-18T06:08:42;31.73;;;11.70;;
65156;SDS011;52745;49.794;18.258;2022-12-18T06:11:09;35.58;;;12.57;;
65156;SDS011;52745;49.794;18.258;2022-12-18T06:13:37;36.00;;;12.85;;
65156;SDS011;52745;49.794;18.258;2022-12-18T06:16:05;45.75;;;13.48;;
65156;SDS011;52745;49.794;18.258;2022-12-18T06:18:32;37.35;;;13.90;;
65156;SDS011;52745;49.794;18.258;2022-12-18T06:20:59;39.70;;;12.18;;
65156;SDS011;52745;49.794;18.258;2022-12-18T06:23:26;33.83;;;11.77;;
65156;SDS011;52745;49.794;18.258;2022-12-18T06:25:52;38.33;;;12.60;;
65156;SDS011;52745;49.794;18.258;2022-12-18T06:28:19;38.95;;;12.38;;
65156;SDS011;52745;49.794;18.258;2022-12-18T06:30:46;42.50;;;13.25;;
65156;SDS011;52745;49.794;18.258;2022-12-18T06:33:14;36.25;;;13.20;;
65156;SDS011;52745;49.794;18.258;2022-12-18T06:35:42;36.08;;;11.82;;
65156;SDS011;52745;49.794;18.258;2022-12-18T06:38:08;31.63;;;12.30;;
65156;SDS011;52745;49.794;18.258;2022-12-18T06:40:36;37.80;;;12.57;;
65156;SDS011;52745;49.794;18.258;2022-12-18T06:43:03;37.85;;;11.90;;
65156;SDS011;52745;49.794;18.258;2022-12-18T06:45:30;39.83;;;13.20;;
65156;SDS011;52745;49.794;18.258;2022-12-18T06:47:56;37.03;;;13.25;;
65156;SDS011;52745;49.794;18.258;2022-12-18T06:50:23;39.83;;;13.30;;
65156;SDS011;52745;49.794;18.258;2022-12-18T06:52:49;38.58;;;13.07;;
65156;SDS011;52745;49.794;18.258;2022-12-18T06:55:16;40.95;;;14.35;;
65156;SDS011;52745;49.794;18.258;2022-12-18T06:57:42;43.10;;;15.43;;
65156;SDS011;52745;49.794;18.258;2022-12-18T07:00:09;39.53;;;14.77;;
65156;SDS011;52745;49.794;18.258;2022-12-18T07:02:35;39.83;;;13.77;;
65156;SDS011;52745;49.794;18.258;2022-12-18T07:05:02;39.67;;;13.00;;
65156;SDS011;52745;49.794;18.258;2022-12-18T07:07:29;41.30;;;13.90;;
65156;SDS011;52745;49.794;18.258;2022-12-18T07:09:55;48.92;;;15.38;;
65156;SDS011;52745;49.794;18.258;2022-12-18T07:12:22;48.00;;;15.07;;
65156;SDS011;52745;49.794;18.258;2022-12-18T07:14:48;41.53;;;14.27;;
65156;SDS011;52745;49.794;18.258;2022-12-18T07:17:15;42.33;;;14.40;;
65156;SDS011;52745;49.794;18.258;2022-12-18T07:19:41;41.67;;;14.70;;
65156;SDS011;52745;49.794;18.258;2022-12-18T07:22:08;143.93;;;53.83;;
65156;SDS011;52745;49.794;18.258;2022-12-18T07:24:36;45.63;;;16.55;;
65156;SDS011;52745;49.794;18.258;2022-12-18T07:27:02;48.75;;;15.88;;
65156;SDS011;52745;49.794;18.258;2022-12-18T07:29:30;43.20;;;15.65;;
65156;SDS011;52745;49.794;18.258;2022-12-18T07:32:11;44.13;;;14.60;;
65156;SDS011;52745;49.794;18.258;2022-12-18T07:34:38;40.95;;;14.15;;
65156;SDS011;52745;49.794;18.258;2022-12-18T07:37:05;46.00;;;14.48;;
65156;SDS011;52745;49.794;18.258;2022-12-18T07:39:32;40.70;;;14.10;;
65156;SDS011;52745;49.794;18.258;2022-12-18T07:41:58;39.95;;;14.05;;
65156;SDS011;52745;49.794;18.258;2022-12-18T07:44:43;38.55;;;13.38;;
65156;SDS011;52745;49.794;18.258;2022-12-18T07:47:10;39.63;;;14.38;;
65156;SDS011;52745;49.794;18.258;2022-12-18T07:49:37;39.13;;;13.00;;
65156;SDS011;52745;49.794;18.258;2022-12-18T07:52:21;38.35;;;13.55;;
65156;SDS011;52745;49.794;18.258;2022-12-18T07:54:48;37.97;;;13.63;;
65156;SDS011;52745;49.794;18.258;2022-12-18T07:57:17;35.30;;;13.02;;
65156;SDS011;52745;49.794;18.258;2022-12-18T07:59:45;43.97;;;13.73;;
65156;SDS011;52745;49.794;18.258;2022-12-18T08:02:12;35.45;;;12.43;;
65156;SDS011;52745;49.794;18.258;2022-12-18T08:04:57;37.42;;;12.10;;
65156;SDS011;52745;49.794;18.258;2022-12-18T08:07:24;38.00;;;12.30;;
65156;SDS011;52745;49.794;18.258;2022-12-18T08:09:51;38.90;;;12.63;;
65156;SDS011;52745;49.794;18.258;2022-12-18T08:12:22;37.38;;;13.50;;
65156;SDS011;52745;49.794;18.258;2022-12-18T08:14:49;41.45;;;13.30;;
65156;SDS011;52745;49.794;18.258;2022-12-18T08:17:15;36.88;;;12.07;;
65156;SDS011;52745;49.794;18.258;2022-12-18T08:19:42;35.28;;;12.23;;
65156;SDS011;52745;49.794;18.258;2022-12-18T08:22:09;42.65;;;13.40;;
65156;SDS011;52745;49.794;18.258;2022-12-18T08:24:36;47.53;;;17.35;;
65156;SDS011;52745;49.794;18.258;2022-12-18T08:27:02;35.45;;;12.75;;
65156;SDS011;52745;49.794;18.258;2022-12-18T08:29:29;43.00;;;14.57;;
65156;SDS011;52745;49.794;18.258;2022-12-18T08:31:56;37.78;;;11.55;;
65156;SDS011;52745;49.794;18.258;2022-12-18T08:34:23;35.10;;;12.38;;
65156;SDS011;52745;49.794;18.258;2022-12-18T08:36:49;38.35;;;12.75;;
65156;SDS011;52745;49.794;18.258;2022-12-18T08:39:16;38.13;;;11.18;;
65156;SDS011;52745;49.794;18.258;2022-12-18T08:41:42;35.60;;;12.25;;
65156;SDS011;52745;49.794;18.258;2022-12-18T08:44:29;39.13;;;11.90;;
65156;SDS011;52745;49.794;18.258;2022-12-18T08:47:04;40.75;;;13.18;;
65156;SDS011;52745;49.794;18.258;2022-12-18T08:49:32;36.03;;;12.48;;
65156;SDS011;52745;49.794;18.258;2022-12-18T08:52:00;42.08;;;13.23;;
65156;SDS011;52745;49.794;18.258;2022-12-18T08:54:27;42.55;;;13.30;;
65156;SDS011;52745;49.794;18.258;2022-12-18T08:56:53;41.15;;;14.00;;
65156;SDS011;52745;49.794;18.258;2022-12-18T08:59:20;43.47;;;13.70;;
65156;SDS011;52745;49.794;18.258;2022-12-18T09:01:46;44.17;;;14.88;;
65156;SDS011;52745;49.794;18.258;2022-12-18T09:04:13;40.28;;;13.82;;
65156;SDS011;52745;49.794;18.258;2022-12-18T09:06:40;47.72;;;15.70;;
65156;SDS011;52745;49.794;18.258;2022-12-18T09:09:07;42.63;;;15.00;;
65156;SDS011;52745;49.794;18.258;2022-12-18T09:11:35;42.03;;;13.60;;
65156;SDS011;52745;49.794;18.258;2022-12-18T09:14:02;43.35;;;14.35;;
65156;SDS011;52745;49.794;18.258;2022-12-18T09:16:28;40.20;;;13.60;;
65156;SDS011;52745;49.794;18.258;2022-12-18T09:18:55;42.13;;;14.07;;
65156;SDS011;52745;49.794;18.258;2022-12-18T09:21:26;43.80;;;14.52;;
65156;SDS011;52745;49.794;18.258;2022-12-18T09:23:54;49.03;;;16.15;;
65156;SDS011;52745;49.794;18.258;2022-12-18T09:26:22;44.08;;;15.10;;
65156;SDS011;52745;49.794;18.258;2022-12-18T09:28:50;50.35;;;17.77;;
65156;SDS011;52745;49.794;18.258;2022-12-18T09:31:17;54.00;;;18.23;;
65156;SDS011;52745;49.794;18.258;2022-12-18T09:33:45;51.80;;;16.08;;
65156;SDS011;52745;49.794;18.258;2022-12-18T09:36:12;49.30;;;15.40;;
65156;SDS011;52745;49.794;18.258;2022-12-18T09:38:40;46.67;;;16.77;;
65156;SDS011;52745;49.794;18.258;2022-12-18T09:44:01;50.33;;;15.68;;
65156;SDS011;52745;49.794;18.258;2022-12-18T09:46:34;44.10;;;15.95;;
65156;SDS011;52745;49.794;18.258;2022-12-18T09:49:07;59.50;;;17.38;;
65156;SDS011;52745;49.794;18.258;2022-12-18T09:51:40;49.20;;;17.13;;
65156;SDS011;52745;49.794;18.258;2022-12-18T09:54:20;59.00;;;17.77;;
65156;SDS011;52745;49.794;18.258;2022-12-18T09:56:53;50.03;;;16.08;;
65156;SDS011;52745;49.794;18.258;2022-12-18T10:01:52;51.53;;;14.95;;
65156;SDS011;52745;49.794;18.258;2022-12-18T10:04:25;49.33;;;17.02;;
65156;SDS011;52745;49.794;18.258;2022-12-18T10:07:03;47.75;;;14.20;;
65156;SDS011;52745;49.794;18.258;2022-12-18T10:12:19;48.55;;;14.55;;
65156;SDS011;52745;49.794;18.258;2022-12-18T10:15:39;39.67;;;13.50;;
65156;SDS011;52745;49.794;18.258;2022-12-18T10:18:22;36.03;;;12.98;;
65156;SDS011;52745;49.794;18.258;2022-12-18T10:21:03;44.00;;;14.15;;
65156;SDS011;52745;49.794;18.258;2022-12-18T10:26:12;47.90;;;13.55;;
65156;SDS011;52745;49.794;18.258;2022-12-18T10:28:39;46.92;;;14.48;;
65156;SDS011;52745;49.794;18.258;2022-12-18T10:31:10;38.08;;;13.60;;
65156;SDS011;52745;49.794;18.258;2022-12-18T10:33:42;37.05;;;13.65;;
65156;SDS011;52745;49.794;18.258;2022-12-18T10:36:10;45.95;;;13.73;;
65156;SDS011;52745;49.794;18.258;2022-12-18T10:38:37;41.97;;;13.15;;
65156;SDS011;52745;49.794;18.258;2022-12-18T10:41:22;38.80;;;13.80;;
65156;SDS011;52745;49.794;18.258;2022-12-18T10:44:14;44.17;;;13.93;;
65156;SDS011;52745;49.794;18.258;2022-12-18T10:46:44;39.28;;;12.52;;
65156;SDS011;52745;49.794;18.258;2022-12-18T10:49:22;42.25;;;13.43;;
65156;SDS011;52745;49.794;18.258;2022-12-18T10:51:50;42.05;;;13.73;;
65156;SDS011;52745;49.794;18.258;2022-12-18T10:54:19;37.03;;;12.30;;
65156;SDS011;52745;49.794;18.258;2022-12-18T10:56:48;43.70;;;13.13;;
65156;SDS011;52745;49.794;18.258;2022-12-18T10:59:16;40.28;;;13.18;;
65156;SDS011;52745;49.794;18.258;2022-12-18T11:02:07;43.50;;;14.50;;
65156;SDS011;52745;49.794;18.258;2022-12-18T11:04:51;42.55;;;13.18;;
65156;SDS011;52745;49.794;18.258;2022-12-18T11:07:18;44.97;;;13.68;;
65156;SDS011;52745;49.794;18.258;2022-12-18T11:09:59;42.50;;;13.50;;
65156;SDS011;52745;49.794;18.258;2022-12-18T11:12:29;40.13;;;13.13;;
65156;SDS011;52745;49.794;18.258;2022-12-18T11:14:56;40.92;;;14.77;;
65156;SDS011;52745;49.794;18.258;2022-12-18T11:17:30;41.28;;;14.05;;
65156;SDS011;52745;49.794;18.258;2022-12-18T11:19:59;38.92;;;13.00;;
65156;SDS011;52745;49.794;18.258;2022-12-18T11:22:57;47.95;;;14.45;;
65156;SDS011;52745;49.794;18.258;2022-12-18T11:25:26;48.30;;;13.82;;
65156;SDS011;52745;49.794;18.258;2022-12-18T11:28:08;41.95;;;13.85;;
65156;SDS011;52745;49.794;18.258;2022-12-18T21:49:52;49.35;;;18.45;;
65156;SDS011;52745;49.794;18.258;2022-12-18T21:52:20;69.90;;;17.75;;
65156;SDS011;52745;49.794;18.258;2022-12-18T21:54:47;79.28;;;21.98;;
65156;SDS011;52745;49.794;18.258;2022-12-18T21:57:13;68.28;;;21.25;;
65156;SDS011;52745;49.794;18.258;2022-12-18T21:59:40;84.32;;;22.73;;
65156;SDS011;52745;49.794;18.258;2022-12-18T22:02:12;81.45;;;25.75;;
65156;SDS011;52745;49.794;18.258;2022-12-18T22:04:41;79.20;;;23.38;;
65156;SDS011;52745;49.794;18.258;2022-12-18T22:07:08;102.18;;;26.70;;
65156;SDS011;52745;49.794;18.258;2022-12-18T22:09:35;80.63;;;25.20;;
65156;SDS011;52745;49.794;18.258;2022-12-18T22:12:02;82.70;;;23.92;;
65156;SDS011;52745;49.794;18.258;2022-12-18T22:14:29;100.70;;;26.27;;
65156;SDS011;52745;49.794;18.258;2022-12-18T22:16:56;88.97;;;26.23;;
65156;SDS011;52745;49.794;18.258;2022-12-18T22:19:23;76.50;;;23.33;;
65156;SDS011;52745;49.794;18.258;2022-12-18T22:21:50;102.85;;;26.55;;
65156;SDS011;52745;49.794;18.258;2022-12-18T22:24:18;81.90;;;24.05;;
65156;SDS011;52745;49.794;18.258;2022-12-18T22:26:47;82.43;;;24.48;;
65156;SDS011;52745;49.794;18.258;2022-12-18T22:29:15;82.50;;;25.65;;
65156;SDS011;52745;49.794;18.258;2022-12-18T22:32:02;95.50;;;25.88;;
65156;SDS011;52745;49.794;18.258;2022-12-18T22:34:30;83.15;;;25.27;;
65156;SDS011;52745;49.794;18.258;2022-12-18T22:36:57;72.38;;;23.30;;
65156;SDS011;52745;49.794;18.258;2022-12-18T22:39:24;83.60;;;23.85;;
65156;SDS011;52745;49.794;18.258;2022-12-18T22:41:53;77.50;;;25.10;;
65156;SDS011;52745;49.794;18.258;2022-12-18T22:44:21;84.93;;;25.58;;
65156;SDS011;52745;49.794;18.258;2022-12-18T22:46:49;77.63;;;23.63;;
65156;SDS011;52745;49.794;18.258;2022-12-18T22:49:19;87.28;;;25.27;;
65156;SDS011;52745;49.794;18.258;2022-12-18T22:51:47;91.38;;;25.75;;
65156;SDS011;52745;49.794;18.258;2022-12-18T22:54:14;80.82;;;25.73;;
65156;SDS011;52745;49.794;18.258;2022-12-18T22:56:41;84.47;;;23.63;;
65156;SDS011;52745;49.794;18.258;2022-12-18T22:59:09;89.30;;;25.92;;
65156;SDS011;52745;49.794;18.258;2022-12-18T23:01:42;85.65;;;25.05;;
65156;SDS011;52745;49.794;18.258;2022-12-18T23:04:09;84.50;;;26.23;;
65156;SDS011;52745;49.794;18.258;2022-12-18T23:06:36;75.53;;;25.05;;
65156;SDS011;52745;49.794;18.258;2022-12-18T23:09:04;85.30;;;22.88;;
65156;SDS011;52745;49.794;18.258;2022-12-18T23:11:31;80.43;;;24.35;;
65156;SDS011;52745;49.794;18.258;2022-12-18T23:13:58;88.65;;;25.52;;
65156;SDS011;52745;49.794;18.258;2022-12-18T23:16:24;62.78;;;20.23;;
65156;SDS011;52745;49.794;18.258;2022-12-18T23:18:51;78.63;;;23.67;;
65156;SDS011;52745;49.794;18.258;2022-12-18T23:21:20;72.78;;;22.98;;
65156;SDS011;52745;49.794;18.258;2022-12-18T23:23:47;75.93;;;23.95;;
65156;SDS011;52745;49.794;18.258;2022-12-18T23:26:18;72.82;;;22.38;;
65156;SDS011;52745;49.794;18.258;2022-12-18T23:28:49;72.63;;;21.63;;
65156;SDS011;52745;49.794;18.258;2022-12-18T23:31:18;83.93;;;22.27;;
65156;SDS011;52745;49.794;18.258;2022-12-18T23:33:50;74.03;;;21.38;;
65156;SDS011;52745;49.794;18.258;2022-12-18T23:36:18;74.03;;;22.17;;
65156;SDS011;52745;49.794;18.258;2022-12-18T23:38:46;71.38;;;20.75;;
65156;SDS011;52745;49.794;18.258;2022-12-18T23:41:18;87.68;;;27.52;;
65156;SDS011;52745;49.794;18.258;2022-12-18T23:43:46;80.78;;;22.40;;
65156;SDS011;52745;49.794;18.258;2022-12-18T23:46:18;80.70;;;25.05;;
65156;SDS011;52745;49.794;18.258;2022-12-18T23:48:46;71.10;;;20.95;;
65156;SDS011;52745;49.794;18.258;2022-12-18T23:51:15;70.40;;;21.77;;
65156;SDS011;52745;49.794;18.258;2022-12-18T23:53:42;71.78;;;22.52;;
65156;SDS011;52745;49.794;18.258;2022-12-18T23:56:10;76.40;;;23.52;;
65156;SDS011;52745;49.794;18.258;2022-12-18T23:58:37;77.93;;;23.25;;
